createdAt,value
2023-03-18T00:01:16.640Z,4.27
2023-03-18T00:03:44.078Z,5.33
2023-03-18T00:06:12.445Z,5.33
2023-03-18T00:08:41.146Z,7.30
2023-03-18T00:11:10.073Z,6.67
2023-03-18T00:13:37.797Z,6.87
2023-03-18T00:16:06.691Z,5.17
2023-03-18T00:18:34.449Z,7.43
2023-03-18T00:21:02.011Z,4.17
2023-03-18T00:23:29.712Z,5.47
2023-03-18T00:25:57.928Z,3.80
2023-03-18T00:28:25.530Z,5.63
2023-03-18T00:30:52.864Z,3.87
2023-03-18T00:33:20.253Z,6.90
2023-03-18T00:35:48.220Z,5.43
2023-03-18T00:38:20.928Z,8.40
2023-03-18T00:41:02.088Z,7.43
2023-03-18T00:43:33.652Z,5.87
2023-03-18T00:46:01.482Z,6.27
2023-03-18T00:48:29.839Z,6.80
2023-03-18T00:50:57.650Z,4.47
2023-03-18T00:53:26.230Z,4.80
2023-03-18T00:55:53.862Z,6.80
2023-03-18T00:58:21.131Z,5.33
2023-03-18T01:00:48.751Z,5.60
2023-03-18T01:03:16.143Z,6.00
2023-03-18T01:05:44.002Z,5.73
2023-03-18T01:08:11.252Z,3.23
2023-03-18T01:10:39.085Z,2.63
2023-03-18T01:13:06.531Z,7.90
2023-03-18T01:15:33.899Z,12.57
2023-03-18T01:18:01.407Z,4.73
2023-03-18T01:20:29.550Z,16.13
2023-03-18T01:22:57.098Z,4.60
2023-03-18T01:25:28.712Z,16.63
2023-03-18T01:27:56.145Z,9.10
2023-03-18T01:30:23.905Z,2.93
2023-03-18T01:32:51.345Z,4.03
2023-03-18T01:35:20.151Z,2.20
2023-03-18T01:37:47.701Z,2.43
2023-03-18T01:40:16.242Z,1.70
2023-03-18T01:42:45.569Z,2.77
2023-03-18T01:45:13.067Z,1.60
2023-03-18T01:47:40.658Z,2.80
2023-03-18T01:50:08.069Z,4.00
2023-03-18T01:52:36.491Z,3.57
2023-03-18T01:55:06.426Z,2.40
2023-03-18T01:57:34.431Z,1.30
2023-03-18T02:00:02.105Z,6.60
2023-03-18T02:02:30.219Z,2.47
2023-03-18T02:04:59.211Z,5.30
2023-03-18T02:07:28.394Z,2.90
2023-03-18T02:09:57.714Z,3.73
2023-03-18T02:12:26.684Z,1.40
2023-03-18T02:14:55.203Z,1.10
2023-03-18T02:17:25.079Z,1.30
2023-03-18T02:20:12.663Z,2.83
2023-03-18T02:22:43.438Z,2.83
2023-03-18T02:25:27.237Z,1.47
2023-03-18T02:28:03.630Z,1.70
2023-03-18T02:30:42.700Z,1.40
2023-03-18T02:33:10.885Z,2.37
2023-03-18T02:35:39.786Z,1.90
2023-03-18T02:38:07.187Z,4.53
2023-03-18T02:40:39.583Z,1.50
2023-03-18T02:43:25.959Z,1.30
2023-03-18T02:45:56.401Z,1.40
2023-03-18T02:48:24.501Z,2.33
2023-03-18T02:50:52.208Z,1.50
2023-03-18T02:53:19.506Z,4.23
2023-03-18T02:55:47.459Z,1.40
2023-03-18T02:58:14.686Z,1.73
2023-03-18T03:00:41.948Z,4.30
2023-03-18T03:03:09.371Z,2.90
2023-03-18T03:05:37.101Z,2.03
2023-03-18T03:08:05.067Z,3.67
2023-03-18T03:10:32.532Z,2.53
2023-03-18T03:13:00.912Z,1.70
2023-03-18T03:15:28.700Z,4.23
2023-03-18T03:17:56.060Z,4.40
2023-03-18T03:20:23.740Z,2.57
2023-03-18T03:22:51.038Z,1.93
2023-03-18T03:25:19.534Z,2.43
2023-03-18T03:27:48.368Z,4.03
2023-03-18T03:30:16.585Z,3.13
2023-03-18T03:32:44.002Z,2.63
2023-03-18T03:35:14.026Z,3.30
2023-03-18T03:37:42.340Z,1.40
2023-03-18T03:40:10.973Z,1.90
2023-03-18T03:42:38.465Z,2.03
2023-03-18T03:45:07.710Z,2.20
2023-03-18T03:47:36.218Z,3.23
2023-03-18T03:50:03.543Z,2.17
2023-03-18T03:52:31.054Z,1.43
2023-03-18T03:55:00.727Z,2.63
2023-03-18T03:57:28.058Z,1.47
2023-03-18T03:59:56.397Z,1.50
2023-03-18T04:02:24.436Z,1.40
2023-03-18T04:04:53.585Z,1.40
2023-03-18T04:07:21.950Z,1.37
2023-03-18T04:09:49.476Z,1.50
2023-03-18T04:12:19.681Z,2.47
2023-03-18T04:14:48.335Z,1.50
2023-03-18T04:17:17.039Z,1.70
2023-03-18T04:19:44.311Z,1.33
2023-03-18T04:22:11.614Z,1.73
2023-03-18T04:24:38.999Z,1.57
2023-03-18T04:27:06.919Z,1.57
2023-03-18T04:29:34.188Z,1.60
2023-03-18T04:32:01.499Z,2.73
2023-03-18T04:34:28.803Z,2.50
2023-03-18T04:36:56.154Z,3.30
2023-03-18T04:39:24.090Z,1.70
2023-03-18T04:41:51.821Z,1.53
2023-03-18T04:44:19.419Z,3.37
2023-03-18T04:46:46.755Z,3.40
2023-03-18T04:49:13.986Z,3.43
2023-03-18T04:51:41.364Z,1.30
2023-03-18T04:54:08.812Z,1.30
2023-03-18T04:56:36.175Z,2.50
2023-03-18T04:59:03.668Z,4.93
2023-03-18T05:01:31.345Z,2.20
2023-03-18T05:03:58.709Z,4.63
2023-03-18T05:06:27.900Z,3.03
2023-03-18T05:08:55.345Z,2.93
2023-03-18T05:11:22.650Z,5.27
2023-03-18T05:13:50.410Z,3.33
2023-03-18T05:16:18.494Z,2.13
2023-03-18T05:18:46.893Z,3.50
2023-03-18T05:21:14.172Z,3.17
2023-03-18T05:23:41.985Z,5.90
2023-03-18T05:26:09.998Z,14.43
2023-03-18T05:28:37.844Z,9.17
2023-03-18T05:31:05.440Z,6.80
2023-03-18T05:33:33.531Z,8.47
2023-03-18T05:36:01.012Z,10.77
2023-03-18T05:38:28.709Z,5.33
2023-03-18T05:40:56.222Z,5.37
2023-03-18T05:43:24.829Z,20.00
2023-03-18T05:45:52.177Z,26.57
2023-03-18T05:48:21.296Z,56.37
2023-03-18T05:50:48.592Z,80.00
2023-03-18T05:53:16.859Z,142.87
2023-03-18T05:55:44.414Z,64.43
2023-03-18T05:58:11.888Z,51.73
2023-03-18T06:00:39.414Z,30.03
2023-03-18T06:03:06.837Z,23.63
2023-03-18T06:05:35.185Z,25.57
2023-03-18T06:08:03.127Z,22.93
2023-03-18T06:10:31.507Z,11.70
2023-03-18T06:12:58.816Z,9.33
2023-03-18T06:15:26.990Z,4.37
2023-03-18T06:17:54.299Z,3.17
2023-03-18T06:20:22.082Z,3.53
2023-03-18T06:22:49.968Z,3.00
2023-03-18T06:25:21.302Z,1.67
2023-03-18T06:27:49.029Z,2.47
2023-03-18T06:30:17.514Z,5.70
2023-03-18T06:32:45.005Z,5.90
2023-03-18T06:35:12.906Z,3.23
2023-03-18T06:37:40.608Z,2.50
2023-03-18T06:40:09.060Z,5.60
2023-03-18T06:42:37.774Z,3.73
2023-03-18T06:45:05.330Z,4.27
2023-03-18T06:47:33.046Z,2.30
2023-03-18T06:50:03.653Z,4.63
2023-03-18T06:52:31.226Z,3.30
2023-03-18T06:55:00.459Z,2.10
2023-03-18T06:57:27.744Z,4.50
2023-03-18T06:59:55.185Z,3.20
2023-03-18T07:02:23.690Z,4.03
2023-03-18T07:04:51.061Z,4.10
2023-03-18T07:07:18.550Z,6.23
2023-03-18T07:09:46.214Z,1.80
2023-03-18T07:12:14.315Z,2.67
2023-03-18T07:14:43.140Z,3.27
2023-03-18T07:17:10.827Z,1.83
2023-03-18T07:19:38.094Z,1.90
2023-03-18T07:22:05.591Z,1.80
2023-03-18T07:24:33.087Z,3.20
2023-03-18T07:27:00.433Z,2.93
2023-03-18T07:29:27.854Z,1.53
2023-03-18T07:31:55.143Z,2.33
2023-03-18T07:34:22.812Z,2.20
2023-03-18T07:36:50.446Z,2.53
2023-03-18T07:39:17.747Z,2.50
2023-03-18T07:41:45.024Z,2.33
2023-03-18T07:44:13.174Z,3.57
2023-03-18T07:46:40.719Z,3.20
2023-03-18T07:49:08.008Z,1.57
2023-03-18T07:51:35.227Z,2.20
2023-03-18T07:54:04.117Z,3.73
2023-03-18T07:56:31.712Z,1.47
2023-03-18T07:58:59.683Z,1.80
2023-03-18T08:01:27.788Z,1.47
2023-03-18T08:03:55.568Z,1.73
2023-03-18T08:06:23.181Z,1.93
2023-03-18T08:08:50.459Z,2.43
2023-03-18T08:11:17.973Z,1.47
2023-03-18T08:13:45.251Z,2.37
2023-03-18T08:16:12.613Z,1.57
2023-03-18T08:18:40.129Z,1.33
2023-03-18T08:21:07.872Z,2.53
2023-03-18T08:23:36.137Z,2.07
2023-03-18T08:26:03.656Z,1.83
2023-03-18T08:28:31.028Z,2.30
2023-03-18T08:30:59.473Z,2.17
2023-03-18T08:33:27.869Z,4.37
2023-03-18T08:35:56.416Z,2.00
2023-03-18T08:38:24.208Z,1.20
2023-03-18T08:40:51.617Z,2.10
2023-03-18T08:43:22.284Z,1.63
2023-03-18T08:45:56.695Z,2.43
2023-03-18T08:48:24.398Z,2.90
2023-03-18T08:50:51.743Z,1.30
2023-03-18T08:53:19.632Z,1.87
2023-03-18T08:55:47.411Z,1.87
2023-03-18T08:58:18.840Z,1.27
2023-03-18T09:00:46.753Z,1.10
2023-03-18T09:03:15.921Z,1.87
2023-03-18T09:05:43.828Z,6.37
2023-03-18T09:08:11.683Z,1.40
2023-03-18T09:10:38.930Z,2.87
2023-03-18T09:13:06.179Z,2.27
2023-03-18T09:15:34.845Z,1.23
2023-03-18T09:18:11.744Z,2.97
2023-03-18T09:20:40.274Z,2.27
2023-03-18T09:23:08.260Z,4.53
2023-03-18T09:25:36.537Z,1.10
2023-03-18T09:28:03.737Z,1.87
2023-03-18T09:30:32.003Z,2.77
2023-03-18T09:32:59.906Z,1.50
2023-03-18T09:35:31.826Z,5.93
2023-03-18T09:37:59.850Z,1.33
2023-03-18T09:40:28.349Z,2.40
2023-03-18T09:43:14.495Z,2.20
2023-03-18T09:46:00.907Z,1.67
2023-03-18T09:48:32.106Z,2.63
2023-03-18T09:50:59.383Z,1.27
2023-03-18T09:53:26.813Z,8.67
2023-03-18T09:55:57.554Z,2.03
2023-03-18T09:58:40.384Z,1.20
2023-03-18T10:01:09.812Z,2.97
2023-03-18T10:03:37.525Z,1.37
2023-03-18T10:06:18.982Z,3.20
2023-03-18T10:09:02.218Z,1.90
2023-03-18T10:11:32.852Z,2.50
2023-03-18T10:14:09.352Z,2.53
2023-03-18T10:16:43.220Z,2.63
2023-03-18T10:19:10.587Z,1.63
2023-03-18T10:21:41.638Z,3.38
2023-03-18T10:24:17.097Z,2.80
2023-03-18T10:26:58.267Z,2.65
2023-03-18T10:29:43.100Z,1.48
2023-03-18T10:32:10.557Z,2.60
2023-03-18T10:34:37.810Z,3.42
2023-03-18T10:37:24.749Z,1.83
2023-03-18T10:39:53.155Z,2.28
2023-03-18T10:42:22.457Z,1.52
2023-03-18T10:44:51.032Z,1.20
2023-03-18T10:47:40.972Z,3.53
2023-03-18T10:50:09.199Z,2.53
2023-03-18T10:52:45.881Z,3.00
2023-03-18T10:55:17.905Z,1.67
2023-03-18T10:57:45.835Z,2.47
2023-03-18T11:00:28.683Z,2.03
2023-03-18T11:02:57.278Z,2.72
2023-03-18T11:05:33.874Z,2.45
2023-03-18T11:08:03.668Z,3.33
2023-03-18T11:10:38.204Z,2.88
2023-03-18T11:13:08.368Z,3.28
2023-03-18T11:15:40.808Z,1.83
2023-03-18T11:18:14.318Z,1.50
2023-03-18T11:20:47.799Z,4.40
2023-03-18T11:23:20.730Z,3.22
2023-03-18T11:25:51.477Z,1.30
2023-03-18T11:28:23.339Z,1.90
2023-03-18T11:30:54.919Z,2.38
2023-03-18T11:33:24.643Z,1.60
2023-03-18T11:36:06.154Z,1.98
2023-03-18T11:38:35.529Z,2.17
2023-03-18T11:41:09.133Z,3.35
2023-03-18T11:43:38.016Z,1.77
2023-03-18T11:46:07.321Z,2.50
2023-03-18T11:48:36.842Z,2.65
2023-03-18T11:51:07.430Z,1.60
2023-03-18T11:53:40.581Z,1.88
2023-03-18T11:56:08.081Z,2.58
2023-03-18T11:58:54.730Z,2.78
2023-03-18T12:01:28.310Z,1.85
2023-03-18T12:04:14.398Z,2.03
2023-03-18T12:06:56.105Z,1.40
2023-03-18T12:09:37.171Z,1.50
2023-03-18T12:12:14.282Z,1.55
2023-03-18T12:14:56.924Z,3.08
2023-03-18T12:17:43.536Z,2.88
2023-03-18T12:20:23.320Z,2.65
2023-03-18T12:23:12.268Z,3.20
2023-03-18T12:26:00.206Z,2.90
2023-03-18T12:28:41.302Z,3.75
2023-03-18T12:31:18.328Z,3.65
2023-03-18T12:33:57.528Z,2.15
2023-03-18T12:36:33.207Z,3.63
2023-03-18T12:39:35.682Z,4.63
2023-03-18T12:42:15.814Z,3.70
2023-03-18T12:44:58.532Z,3.53
2023-03-18T12:47:48.469Z,2.80
2023-03-18T12:50:16.234Z,6.75
2023-03-18T12:52:49.370Z,10.35
2023-03-18T12:55:35.070Z,2.33
2023-03-18T12:58:05.406Z,3.25
2023-03-18T13:00:38.602Z,3.05
2023-03-18T13:03:25.061Z,3.90
2023-03-18T13:05:57.218Z,3.33
2023-03-18T13:08:40.747Z,3.92
2023-03-18T13:11:20.172Z,3.15
2023-03-18T13:13:50.893Z,5.32
2023-03-18T13:16:20.166Z,4.32
2023-03-18T13:18:50.526Z,3.67
2023-03-18T13:21:21.621Z,2.28
2023-03-18T13:24:04.760Z,2.92
2023-03-18T13:26:50.965Z,2.47
2023-03-18T13:29:37.970Z,1.95
2023-03-18T13:32:08.532Z,2.72
2023-03-18T13:34:55.192Z,3.72
2023-03-18T13:37:22.769Z,2.45
2023-03-18T13:40:09.609Z,2.55
2023-03-18T13:42:38.603Z,2.22
2023-03-18T13:45:13.064Z,1.80
2023-03-18T13:47:42.534Z,2.55
2023-03-18T13:50:19.086Z,3.80
2023-03-18T13:52:47.963Z,3.05
2023-03-18T13:55:24.467Z,3.03
2023-03-18T13:58:18.891Z,2.08
2023-03-18T14:01:09.226Z,1.75
2023-03-18T14:03:42.879Z,2.97
2023-03-18T14:06:19.968Z,2.45
2023-03-18T14:08:49.244Z,2.40
2023-03-18T14:11:28.809Z,2.40
2023-03-18T14:14:04.149Z,3.10
2023-03-18T14:16:49.119Z,3.08
2023-03-18T14:19:19.428Z,2.20
2023-03-18T14:21:49.320Z,3.50
2023-03-18T14:24:17.242Z,2.25
2023-03-18T14:26:49.499Z,2.28
2023-03-18T14:29:24.443Z,2.10
2023-03-18T14:31:58.027Z,4.40
2023-03-18T14:34:27.898Z,2.25
2023-03-18T14:36:58.493Z,3.53
2023-03-18T14:39:40.063Z,2.47
2023-03-18T14:42:13.749Z,1.85
2023-03-18T14:44:47.233Z,3.30
2023-03-18T14:47:37.830Z,2.90
2023-03-18T14:50:26.344Z,2.25
2023-03-18T14:53:14.592Z,3.38
2023-03-18T14:55:43.108Z,4.60
2023-03-18T14:58:17.598Z,3.63
2023-03-18T15:00:46.292Z,2.97
2023-03-18T15:03:27.887Z,3.35
2023-03-18T15:05:58.273Z,3.63
2023-03-18T15:08:37.410Z,2.10
2023-03-18T15:11:13.094Z,3.03
2023-03-18T15:13:42.705Z,4.97
2023-03-18T15:16:11.498Z,3.22
2023-03-18T15:18:39.981Z,7.55
2023-03-18T15:21:13.508Z,4.03
2023-03-18T15:24:01.288Z,3.90
2023-03-18T15:26:34.435Z,3.92
2023-03-18T15:29:04.403Z,4.78
2023-03-18T15:31:32.045Z,4.82
2023-03-18T15:34:07.747Z,5.18
2023-03-18T15:36:42.373Z,5.43
2023-03-18T15:39:19.727Z,5.45
2023-03-18T15:41:47.191Z,4.25
2023-03-18T15:44:16.816Z,5.35
2023-03-18T15:46:47.325Z,3.70
2023-03-18T15:49:14.611Z,4.18
2023-03-18T15:51:48.004Z,3.63
2023-03-18T15:54:29.942Z,5.03
2023-03-18T15:57:11.304Z,5.80
2023-03-18T15:59:38.871Z,3.30
2023-03-18T16:02:18.603Z,4.82
2023-03-18T16:04:48.328Z,5.15
2023-03-18T16:07:21.116Z,4.55
2023-03-18T16:09:48.982Z,7.63
2023-03-18T16:12:20.630Z,4.45
2023-03-18T16:14:49.223Z,6.63
2023-03-18T16:17:20.440Z,6.05
2023-03-18T16:19:53.850Z,4.15
2023-03-18T16:22:22.974Z,4.15
2023-03-18T16:24:50.672Z,5.70
2023-03-18T16:27:33.856Z,4.68
2023-03-18T16:30:01.160Z,6.88
2023-03-18T16:32:29.049Z,3.42
2023-03-18T16:34:56.422Z,4.15
2023-03-18T16:37:25.987Z,3.38
2023-03-18T16:40:00.681Z,5.07
2023-03-18T16:42:30.337Z,3.78
2023-03-18T16:44:57.918Z,6.05
2023-03-18T16:47:27.439Z,4.00
2023-03-18T16:49:55.756Z,3.55
2023-03-18T16:52:23.424Z,3.45
2023-03-18T16:54:50.724Z,3.85
2023-03-18T16:57:19.633Z,5.18
2023-03-18T16:59:50.965Z,4.13
2023-03-18T17:02:28.095Z,6.05
2023-03-18T17:04:55.642Z,6.07
2023-03-18T17:07:23.261Z,3.58
2023-03-18T17:09:50.942Z,3.08
2023-03-18T17:12:18.508Z,5.82
2023-03-18T17:14:51.104Z,3.58
2023-03-18T17:17:25.012Z,3.35
2023-03-18T17:19:52.261Z,9.23
2023-03-18T17:22:32.853Z,10.20
2023-03-18T17:25:02.159Z,8.05
2023-03-18T17:27:32.777Z,5.50
2023-03-18T17:30:00.921Z,14.95
2023-03-18T17:32:28.223Z,11.77
2023-03-18T17:34:56.312Z,11.48
2023-03-18T17:37:23.751Z,10.82
2023-03-18T17:39:51.262Z,16.83
2023-03-18T17:42:28.857Z,103.05
2023-03-18T17:44:57.718Z,138.75
2023-03-18T17:47:25.032Z,141.15
2023-03-18T17:49:52.280Z,81.30
2023-03-18T17:52:21.068Z,33.00
2023-03-18T17:54:48.591Z,13.52
2023-03-18T17:57:18.318Z,7.80
2023-03-18T17:59:49.164Z,7.15
2023-03-18T18:02:18.724Z,7.25
2023-03-18T18:04:46.294Z,4.70
2023-03-18T18:07:21.923Z,4.27
2023-03-18T18:09:49.757Z,5.03
2023-03-18T18:12:25.459Z,9.97
2023-03-18T18:14:52.784Z,6.27
2023-03-18T18:17:20.702Z,5.95
2023-03-18T18:19:49.221Z,5.10
2023-03-18T18:22:26.736Z,4.60
2023-03-18T18:24:54.613Z,4.67
2023-03-18T18:27:22.006Z,4.17
2023-03-18T18:29:51.878Z,3.53
2023-03-18T18:32:21.838Z,3.67
2023-03-18T18:34:49.344Z,3.77
2023-03-18T18:37:16.620Z,4.93
2023-03-18T18:39:43.914Z,9.97
2023-03-18T18:42:12.453Z,6.00
2023-03-18T18:44:40.393Z,5.07
2023-03-18T18:47:18.334Z,5.80
2023-03-18T18:49:46.927Z,4.23
2023-03-18T18:52:14.452Z,6.33
2023-03-18T18:54:42.110Z,9.53
2023-03-18T18:57:23.241Z,7.27
2023-03-18T18:59:50.628Z,6.47
2023-03-18T19:02:31.825Z,3.57
2023-03-18T19:05:00.733Z,13.00
2023-03-18T19:07:29.385Z,8.73
2023-03-18T19:09:56.887Z,6.87
2023-03-18T19:12:24.420Z,8.47
2023-03-18T19:14:52.178Z,6.20
2023-03-18T19:17:20.775Z,6.47
2023-03-18T19:19:48.168Z,3.17
2023-03-18T19:22:16.732Z,10.60
2023-03-18T19:24:45.859Z,20.70
2023-03-18T19:27:29.733Z,11.33
2023-03-18T19:29:58.834Z,10.17
2023-03-18T19:32:26.735Z,6.03
2023-03-18T19:34:54.713Z,6.03
2023-03-18T19:37:27.277Z,6.17
2023-03-18T19:39:57.974Z,12.80
2023-03-18T19:42:25.976Z,20.97
2023-03-18T19:44:53.334Z,27.93
2023-03-18T19:47:20.868Z,14.40
2023-03-18T19:49:48.153Z,11.57
2023-03-18T19:52:20.411Z,6.97
2023-03-18T19:54:48.225Z,9.33
2023-03-18T19:57:18.158Z,5.80
2023-03-18T19:59:47.944Z,4.40
2023-03-18T20:02:20.108Z,6.53
2023-03-18T20:04:49.386Z,6.10
2023-03-18T20:07:17.375Z,4.43
2023-03-18T20:09:45.167Z,7.03
2023-03-18T20:12:31.198Z,30.00
2023-03-18T20:14:59.094Z,19.30
2023-03-18T20:17:31.136Z,10.77
2023-03-18T20:19:58.418Z,8.47
2023-03-18T20:22:40.197Z,6.77
2023-03-18T20:25:08.604Z,8.13
2023-03-18T20:27:36.045Z,8.43
2023-03-18T20:30:11.802Z,8.30
2023-03-18T20:32:39.110Z,10.10
2023-03-18T20:35:06.785Z,13.97
2023-03-18T20:37:34.979Z,5.17
2023-03-18T20:40:07.374Z,6.57
2023-03-18T20:42:34.763Z,5.97
2023-03-18T20:45:02.345Z,4.23
2023-03-18T20:47:29.594Z,5.17
2023-03-18T20:49:56.841Z,7.80
2023-03-18T20:52:26.752Z,8.40
2023-03-18T20:54:54.168Z,9.03
2023-03-18T20:57:21.456Z,9.47
2023-03-18T20:59:49.418Z,9.50
2023-03-18T21:02:31.197Z,4.30
2023-03-18T21:04:59.238Z,8.63
2023-03-18T21:07:26.892Z,10.63
2023-03-18T21:09:54.385Z,7.90
2023-03-18T21:12:22.106Z,10.97
2023-03-18T21:14:50.191Z,10.63
2023-03-18T21:17:21.435Z,16.43
2023-03-18T21:19:49.205Z,16.93
2023-03-18T21:22:21.605Z,14.30
2023-03-18T21:24:49.546Z,16.87
2023-03-18T21:27:21.135Z,16.47
2023-03-18T21:29:50.068Z,16.10
2023-03-18T21:32:22.358Z,15.67
2023-03-18T21:34:49.839Z,15.37
2023-03-18T21:37:17.972Z,14.53
2023-03-18T21:39:45.316Z,14.27
2023-03-18T21:42:20.252Z,14.07
2023-03-18T21:44:47.562Z,12.47
2023-03-18T21:47:19.419Z,12.43
2023-03-18T21:49:47.093Z,12.20
2023-03-18T21:52:19.427Z,10.97
2023-03-18T21:54:47.384Z,14.13
2023-03-18T21:57:18.703Z,13.87
2023-03-18T21:59:46.805Z,10.53
2023-03-18T22:02:34.348Z,15.17
2023-03-18T22:05:02.797Z,11.80
2023-03-18T22:07:31.443Z,9.30
2023-03-18T22:09:58.872Z,12.73
2023-03-18T22:12:27.602Z,16.23
2023-03-18T22:14:55.424Z,15.47
2023-03-18T22:17:31.906Z,19.13
2023-03-18T22:19:59.819Z,16.63
2023-03-18T22:22:37.069Z,12.53
2023-03-18T22:25:04.476Z,12.50
2023-03-18T22:27:32.353Z,11.07
2023-03-18T22:30:00.529Z,11.93
2023-03-18T22:32:41.464Z,14.10
2023-03-18T22:35:29.094Z,14.20
2023-03-18T22:37:56.862Z,13.50
2023-03-18T22:40:28.531Z,11.90
2023-03-18T22:42:56.769Z,12.43
2023-03-18T22:45:26.210Z,10.87
2023-03-18T22:47:54.416Z,11.10
2023-03-18T22:50:22.569Z,7.43
2023-03-18T22:52:51.073Z,9.57
2023-03-18T22:55:22.840Z,9.70
2023-03-18T22:57:50.717Z,9.20
2023-03-18T23:00:18.997Z,9.93
2023-03-18T23:02:46.310Z,10.83
2023-03-18T23:05:18.616Z,8.47
2023-03-18T23:07:45.848Z,9.63
2023-03-18T23:10:14.084Z,10.87
2023-03-18T23:12:43.437Z,9.73
2023-03-18T23:15:16.255Z,9.30
2023-03-18T23:17:43.629Z,8.27
2023-03-18T23:20:11.590Z,9.10
2023-03-18T23:22:39.233Z,10.43
2023-03-18T23:25:07.088Z,9.93
2023-03-18T23:27:34.698Z,10.93
2023-03-18T23:30:01.916Z,7.90
2023-03-18T23:32:29.355Z,6.87
2023-03-18T23:34:56.762Z,6.10
2023-03-18T23:37:24.480Z,7.00
2023-03-18T23:39:51.831Z,5.77
2023-03-18T23:42:19.952Z,6.20
2023-03-18T23:44:47.828Z,7.27
2023-03-18T23:47:16.003Z,6.07
2023-03-18T23:49:43.430Z,7.70
2023-03-18T23:52:15.088Z,7.00
2023-03-18T23:54:42.341Z,6.70
2023-03-18T23:57:11.032Z,9.10
2023-03-18T23:59:38.476Z,8.60
